createdAt,value
2018-04-02T13:39:28.383Z,97612
2018-04-02T13:41:55.349Z,97618
2018-04-02T13:44:22.609Z,97627
2018-04-02T13:46:50.185Z,97623
2018-04-02T13:49:16.879Z,97625
2018-04-02T13:51:43.878Z,97623
2018-04-02T13:54:11.745Z,97623
2018-04-02T13:56:39.253Z,97620
2018-04-02T13:59:06.911Z,97619
2018-04-02T14:01:33.563Z,97621
2018-04-02T14:04:00.463Z,97619
2018-04-02T14:06:27.209Z,97618
2018-04-02T14:08:56.606Z,97621
2018-04-02T14:11:31.350Z,97621
2018-04-02T14:13:58.866Z,97615
2018-04-02T14:16:30.807Z,97616
2018-04-02T14:18:58.691Z,97620
2018-04-02T14:21:25.882Z,97619
2018-04-02T14:23:53.170Z,97624
2018-04-02T14:26:21.144Z,97623
2018-04-02T14:28:48.673Z,97616
2018-04-02T14:31:16.788Z,97609
2018-04-02T14:33:44.188Z,97605
2018-04-02T14:36:12.139Z,97599
2018-04-02T14:38:40.249Z,97606
2018-04-02T14:41:07.701Z,97604
2018-04-02T14:43:35.848Z,97597
2018-04-02T14:46:04.976Z,97601
2018-04-02T14:48:32.594Z,97611
2018-04-02T14:50:59.305Z,97599
2018-04-02T14:53:26.293Z,97598
2018-04-02T14:55:53.323Z,97594
2018-04-02T14:58:20.943Z,97602
2018-04-02T15:00:47.941Z,97605
2018-04-02T15:03:14.737Z,97596
2018-04-02T15:05:41.607Z,97608
2018-04-02T15:08:08.815Z,97603
2018-04-02T15:10:36.962Z,97612
2018-04-02T15:13:04.329Z,97603
2018-04-02T15:15:31.398Z,97607
2018-04-02T15:17:59.329Z,97616
2018-04-02T15:20:28.636Z,97623
2018-04-02T15:22:55.416Z,97617
2018-04-02T15:25:22.631Z,97616
2018-04-02T15:27:56.686Z,97621
2018-04-02T15:30:30.008Z,97616
2018-04-02T15:32:57.281Z,97619
2018-04-02T15:35:24.137Z,97622
2018-04-02T15:37:51.897Z,97631
2018-04-02T15:40:19.396Z,97618
2018-04-02T15:42:47.376Z,97624
2018-04-02T15:45:15.085Z,97626
2018-04-02T15:47:42.360Z,97627
2018-04-02T15:50:09.950Z,97627
2018-04-02T15:52:36.946Z,97628
2018-04-02T15:55:05.338Z,97632
2018-04-02T15:57:32.487Z,97631
2018-04-02T15:59:59.961Z,97630
2018-04-02T16:02:27.717Z,97639
2018-04-02T16:05:04.585Z,97639
2018-04-02T16:07:31.873Z,97630
2018-04-02T16:09:59.937Z,97633
2018-04-02T16:12:28.307Z,97634
2018-04-02T16:14:57.309Z,97631
2018-04-02T16:17:25.682Z,97639
2018-04-02T16:19:54.093Z,97637
2018-04-02T16:22:21.518Z,97645
2018-04-02T16:24:51.749Z,97646
2018-04-02T16:27:20.485Z,97640
2018-04-02T16:29:48.314Z,97650
2018-04-02T16:32:16.918Z,97644
2018-04-02T16:34:45.226Z,97647
2018-04-02T16:37:13.329Z,97644
2018-04-02T16:39:40.925Z,97646
2018-04-02T16:42:09.161Z,97641
2018-04-02T16:44:38.192Z,97641
2018-04-02T16:47:05.919Z,97644
2018-04-02T16:49:34.543Z,97646
2018-04-02T16:52:03.507Z,97643
2018-04-02T16:54:32.271Z,97647
2018-04-02T16:57:01.036Z,97659
2018-04-02T16:59:28.450Z,97659
2018-04-02T17:01:55.957Z,97651
2018-04-02T17:04:26.725Z,97663
2018-04-02T17:06:55.818Z,97664
2018-04-02T17:09:24.121Z,97651
2018-04-02T17:11:55.327Z,97657
2018-04-02T17:14:37.969Z,97656
2018-04-02T17:17:06.983Z,97653
2018-04-02T17:19:35.072Z,97654
2018-04-02T17:22:02.888Z,97651
2018-04-02T17:24:31.392Z,97650
2018-04-02T17:26:59.718Z,97647
2018-04-02T17:29:29.497Z,97657
2018-04-02T17:31:57.037Z,97658
2018-04-02T17:34:26.645Z,97657
2018-04-02T17:36:55.015Z,97666
2018-04-02T17:39:22.453Z,97663
2018-04-02T17:41:53.472Z,97665
2018-04-02T17:44:20.881Z,97669
2018-04-02T17:46:50.779Z,97661
2018-04-02T17:49:20.185Z,97679
2018-04-02T17:51:48.351Z,97675
2018-04-02T17:54:17.204Z,97669
2018-04-02T17:56:46.265Z,97674
2018-04-02T17:59:16.147Z,97672
2018-04-02T18:01:46.497Z,97675
2018-04-02T18:04:15.855Z,97685
2018-04-02T18:06:44.076Z,97689
2018-04-02T18:09:20.651Z,97685
2018-04-02T18:11:50.876Z,97690
2018-04-02T18:14:30.194Z,97689
2018-04-02T18:16:59.510Z,97691
2018-04-02T18:19:27.781Z,97700
2018-04-02T18:21:55.978Z,97709
2018-04-02T18:24:23.704Z,97713
2018-04-02T18:26:51.697Z,97713
2018-04-02T18:29:20.692Z,97715
2018-04-02T18:31:48.844Z,97718
2018-04-02T18:34:17.566Z,97712
2018-04-02T18:36:48.306Z,97731
2018-04-02T18:39:16.155Z,97722
2018-04-02T18:41:43.615Z,97723
2018-04-02T18:44:11.973Z,97714
2018-04-02T18:46:40.469Z,97725
2018-04-02T18:49:09.036Z,97727
2018-04-02T18:51:38.237Z,97734
2018-04-02T18:54:06.095Z,97733
2018-04-02T18:56:34.292Z,97745
2018-04-02T18:59:04.253Z,97744
2018-04-02T19:01:32.461Z,97749
2018-04-02T19:04:01.137Z,97745
2018-04-02T19:06:28.954Z,97749
2018-04-02T19:08:56.388Z,97748
2018-04-02T19:11:26.591Z,97743
2018-04-02T19:13:54.656Z,97743
2018-04-02T19:16:23.444Z,97751
2018-04-02T19:18:51.764Z,97747
2018-04-02T19:21:20.530Z,97744
2018-04-02T19:23:49.774Z,97740
2018-04-02T19:26:17.091Z,97752
2018-04-02T19:28:44.453Z,97753
2018-04-02T19:31:13.004Z,97757
2018-04-02T19:33:41.074Z,97764
2018-04-02T19:36:08.556Z,97765
2018-04-02T19:38:35.683Z,97764
2018-04-02T19:41:04.388Z,97766
2018-04-02T19:43:32.759Z,97766
2018-04-02T19:49:30.154Z,97768
2018-04-02T19:51:58.918Z,97763
2018-04-02T19:54:27.083Z,97770
2018-04-02T19:56:55.772Z,97774
2018-04-02T19:59:25.220Z,97774
2018-04-02T20:01:53.314Z,97777
2018-04-02T20:04:22.148Z,97777
2018-04-02T20:06:52.103Z,97778
2018-04-02T20:09:19.778Z,97774
2018-04-02T20:11:47.589Z,97773
2018-04-02T20:14:15.354Z,97771
2018-04-02T20:16:45.197Z,97775
2018-04-02T20:19:13.028Z,97770
2018-04-02T20:21:43.342Z,97773
2018-04-02T20:24:13.170Z,97785
2018-04-02T20:26:44.819Z,97782
2018-04-02T20:29:13.976Z,97784
2018-04-02T20:31:41.970Z,97779
2018-04-02T20:34:09.965Z,97783
2018-04-02T20:36:39.368Z,97787
2018-04-02T20:39:08.055Z,97784
2018-04-02T20:41:36.574Z,97786
2018-04-02T20:44:04.803Z,97793
2018-04-02T20:46:33.787Z,97790
2018-04-02T20:49:02.649Z,97801
2018-04-02T20:51:30.384Z,97809
2018-04-02T20:54:03.338Z,97807
2018-04-02T20:56:31.184Z,97812
2018-04-02T20:58:58.982Z,97808
2018-04-02T21:01:26.294Z,97808
2018-04-02T21:03:57.611Z,97804
2018-04-02T21:06:26.050Z,97808
2018-04-02T21:08:53.811Z,97823
2018-04-02T21:11:24.196Z,97822
2018-04-02T21:13:52.745Z,97820
2018-04-02T21:16:30.605Z,97811
2018-04-02T21:21:47.402Z,97804
2018-04-02T21:24:15.248Z,97803
2018-04-02T21:26:45.430Z,97808
2018-04-02T21:29:14.047Z,97801
2018-04-02T21:31:42.152Z,97802
2018-04-02T21:34:11.713Z,97795
2018-04-02T21:36:40.404Z,97792
2018-04-02T21:39:14.640Z,97784
2018-04-02T21:41:43.626Z,97777
2018-04-02T21:44:11.953Z,97775
2018-04-02T21:46:40.059Z,97784
2018-04-02T21:49:11.821Z,97792
2018-04-02T21:51:40.188Z,97794
2018-04-02T21:54:07.639Z,97792
2018-04-02T21:56:36.012Z,97801
2018-04-02T21:59:03.833Z,97805
2018-04-02T22:01:31.543Z,97801
2018-04-02T22:03:59.616Z,97801
2018-04-02T22:06:45.961Z,97801
2018-04-02T22:09:13.269Z,97797
2018-04-02T22:11:41.379Z,97802
2018-04-02T22:14:10.039Z,97810
2018-04-02T22:16:38.722Z,97810
2018-04-02T22:19:08.043Z,97806
2018-04-02T22:21:35.159Z,97810
2018-04-02T22:24:03.542Z,97807
2018-04-02T22:26:31.604Z,97805
2018-04-02T22:28:59.065Z,97804
2018-04-02T22:31:26.725Z,97798
2018-04-02T22:33:54.927Z,97792
2018-04-02T22:36:22.978Z,97793
2018-04-02T22:38:51.041Z,97797
2018-04-02T22:41:18.186Z,97789
2018-04-02T22:43:44.950Z,97792
2018-04-02T22:46:12.779Z,97794
2018-04-02T22:48:39.526Z,97801
2018-04-02T22:51:06.497Z,97802
2018-04-02T22:53:33.246Z,97801
2018-04-02T22:56:02.779Z,97797
2018-04-02T22:58:30.782Z,97803
2018-04-02T23:00:58.744Z,97804
2018-04-02T23:03:30.271Z,97802
2018-04-02T23:05:57.662Z,97803
2018-04-02T23:08:25.733Z,97800
2018-04-02T23:10:53.913Z,97801
2018-04-02T23:13:21.441Z,97800
2018-04-02T23:15:48.415Z,97802
2018-04-02T23:18:16.304Z,97799
2018-04-02T23:20:43.353Z,97798
2018-04-02T23:23:11.765Z,97798
2018-04-02T23:25:39.652Z,97803
2018-04-02T23:28:07.396Z,97812
2018-04-02T23:30:34.064Z,97809
2018-04-02T23:33:01.534Z,97809
2018-04-02T23:35:28.684Z,97807
2018-04-02T23:37:55.916Z,97803
2018-04-02T23:40:24.929Z,97798
2018-04-02T23:42:52.896Z,97806
2018-04-02T23:45:21.505Z,97808
2018-04-02T23:47:55.480Z,97804
2018-04-02T23:50:25.322Z,97802
2018-04-02T23:52:52.713Z,97808
2018-04-02T23:55:23.362Z,97804
2018-04-02T23:57:50.912Z,97798
